createdAt,value
2022-09-23T00:01:15.793Z,6.21
2022-09-23T00:03:47.710Z,5.92
2022-09-23T00:06:17.421Z,5.57
2022-09-23T00:08:44.591Z,5.78
2022-09-23T00:11:17.360Z,5.80
2022-09-23T00:13:46.770Z,5.93
2022-09-23T00:16:16.890Z,6.02
2022-09-23T00:18:44.390Z,6.15
2022-09-23T00:21:14.867Z,6.18
2022-09-23T00:23:42.997Z,6.14
2022-09-23T00:26:13.151Z,6.04
2022-09-23T00:28:40.670Z,5.97
2022-09-23T00:31:20.108Z,5.91
2022-09-23T00:33:47.381Z,5.93
2022-09-23T00:36:15.993Z,5.92
2022-09-23T00:38:44.220Z,5.96
2022-09-23T00:41:11.953Z,6.03
2022-09-23T00:43:41.605Z,6.01
2022-09-23T00:46:11.753Z,5.86
2022-09-23T00:48:41.259Z,5.78
2022-09-23T00:51:10.622Z,5.78
2022-09-23T00:53:38.851Z,5.94
2022-09-23T00:56:10.031Z,6.05
2022-09-23T00:58:41.133Z,5.98
2022-09-23T01:01:08.297Z,6.04
2022-09-23T01:03:35.253Z,6.07
2022-09-23T01:06:02.016Z,6.06
2022-09-23T01:08:29.193Z,6.14
2022-09-23T01:11:26.719Z,6.04
2022-09-23T01:14:32.179Z,6.06
2022-09-23T01:17:09.411Z,6.10
2022-09-23T01:19:36.508Z,6.14
2022-09-23T01:22:22.039Z,6.06
2022-09-23T01:25:10.377Z,5.97
2022-09-23T01:28:04.575Z,6.00
2022-09-23T01:30:34.209Z,5.80
2022-09-23T01:33:13.375Z,5.84
2022-09-23T01:36:00.829Z,5.93
2022-09-23T01:38:40.254Z,5.94
2022-09-23T01:41:31.508Z,5.95
2022-09-23T01:44:11.490Z,6.06
2022-09-23T01:47:04.385Z,6.11
2022-09-23T01:49:40.242Z,5.98
2022-09-23T01:52:18.456Z,6.13
2022-09-23T01:55:16.709Z,6.19
2022-09-23T01:57:48.944Z,6.04
2022-09-23T02:00:18.401Z,6.04
2022-09-23T02:03:12.737Z,5.79
2022-09-23T02:05:54.139Z,5.83
2022-09-23T02:09:16.430Z,5.70
2022-09-23T02:11:48.913Z,5.65
2022-09-23T02:14:24.999Z,5.63
2022-09-23T02:16:56.123Z,5.65
2022-09-23T02:19:41.995Z,5.66
2022-09-23T02:22:15.363Z,5.62
2022-09-23T02:24:42.132Z,5.55
2022-09-23T02:27:24.155Z,5.44
2022-09-23T02:30:19.046Z,5.23
2022-09-23T02:33:05.360Z,5.14
2022-09-23T02:35:43.035Z,5.23
2022-09-23T02:38:24.385Z,5.15
2022-09-23T02:41:07.632Z,5.10
2022-09-23T02:43:40.120Z,5.06
2022-09-23T02:46:07.605Z,4.87
2022-09-23T02:48:41.369Z,4.89
2022-09-23T02:51:08.637Z,4.94
2022-09-23T02:53:35.538Z,4.95
2022-09-23T02:56:13.604Z,4.94
2022-09-23T02:58:40.427Z,4.72
2022-09-23T03:01:31.568Z,4.68
2022-09-23T03:04:23.321Z,4.71
2022-09-23T03:07:13.205Z,4.62
2022-09-23T03:09:57.920Z,4.60
2022-09-23T03:12:39.874Z,4.54
2022-09-23T03:15:15.463Z,4.60
2022-09-23T03:18:00.537Z,4.56
2022-09-23T03:20:40.821Z,4.48
2022-09-23T03:23:10.671Z,4.46
2022-09-23T03:25:41.303Z,4.40
2022-09-23T03:28:09.223Z,4.31
2022-09-23T03:30:37.090Z,4.30
2022-09-23T03:33:08.264Z,4.24
2022-09-23T03:35:59.605Z,4.35
2022-09-23T03:38:32.994Z,4.35
2022-09-23T03:41:03.002Z,4.37
2022-09-23T03:43:31.237Z,4.39
2022-09-23T03:45:59.521Z,4.42
2022-09-23T03:48:26.246Z,4.59
2022-09-23T03:50:53.182Z,4.60
2022-09-23T03:53:21.099Z,4.43
2022-09-23T03:55:48.434Z,4.37
2022-09-23T03:58:16.094Z,4.59
2022-09-23T04:00:43.645Z,4.59
2022-09-23T04:03:11.839Z,4.64
2022-09-23T04:05:39.310Z,4.70
2022-09-23T04:08:06.436Z,4.49
2022-09-23T04:10:33.214Z,4.50
2022-09-23T04:12:59.955Z,4.62
2022-09-23T04:15:26.737Z,4.71
2022-09-23T04:17:53.452Z,4.72
2022-09-23T04:20:20.707Z,4.64
2022-09-23T04:22:47.431Z,4.57
2022-09-23T04:25:14.298Z,4.57
2022-09-23T04:27:41.026Z,4.35
2022-09-23T04:30:08.448Z,4.49
2022-09-23T04:32:35.185Z,4.66
2022-09-23T04:35:02.091Z,4.73
2022-09-23T04:37:29.607Z,4.72
2022-09-23T04:39:56.688Z,4.78
2022-09-23T04:42:23.458Z,4.95
2022-09-23T04:44:50.259Z,4.90
2022-09-23T04:47:19.302Z,4.88
2022-09-23T04:49:46.127Z,4.90
2022-09-23T04:52:12.782Z,5.06
2022-09-23T04:54:41.752Z,5.13
2022-09-23T04:57:11.214Z,5.17
2022-09-23T04:59:37.886Z,5.30
2022-09-23T05:02:04.841Z,5.28
2022-09-23T05:04:32.483Z,5.39
2022-09-23T05:07:02.300Z,5.15
2022-09-23T05:09:30.143Z,5.26
2022-09-23T05:11:56.867Z,5.44
2022-09-23T05:14:23.586Z,5.58
2022-09-23T05:16:50.408Z,5.71
2022-09-23T05:19:17.076Z,5.71
2022-09-23T05:21:43.730Z,5.70
2022-09-23T05:24:12.515Z,5.77
2022-09-23T05:26:40.063Z,5.71
2022-09-23T05:29:06.857Z,6.02
2022-09-23T05:31:33.703Z,6.18
2022-09-23T05:34:05.197Z,6.40
2022-09-23T05:36:38.234Z,6.64
2022-09-23T05:39:06.409Z,6.58
2022-09-23T05:41:34.051Z,7.06
2022-09-23T05:44:01.034Z,7.05
2022-09-23T05:46:29.772Z,7.31
2022-09-23T05:49:02.137Z,6.92
2022-09-23T05:51:31.298Z,6.64
2022-09-23T05:53:59.000Z,7.58
2022-09-23T05:56:27.794Z,7.98
2022-09-23T05:58:56.484Z,7.73
2022-09-23T06:01:26.594Z,7.48
2022-09-23T06:03:55.137Z,7.28
2022-09-23T06:06:29.293Z,7.05
2022-09-23T06:08:56.703Z,6.58
2022-09-23T06:11:23.387Z,7.17
2022-09-23T06:13:55.195Z,7.49
2022-09-23T06:16:22.165Z,7.71
2022-09-23T06:18:48.963Z,7.73
2022-09-23T06:21:17.234Z,8.08
2022-09-23T06:23:45.457Z,8.27
2022-09-23T06:26:14.778Z,8.25
2022-09-23T06:28:44.151Z,8.14
2022-09-23T06:31:14.048Z,7.92
2022-09-23T06:33:43.124Z,7.74
2022-09-23T06:36:11.420Z,8.05
2022-09-23T06:38:44.673Z,8.35
2022-09-23T06:41:12.736Z,8.62
2022-09-23T06:43:39.955Z,8.45
2022-09-23T06:46:08.785Z,8.30
2022-09-23T06:48:36.122Z,9.48
2022-09-23T06:51:07.355Z,10.76
2022-09-23T06:53:34.984Z,12.24
2022-09-23T06:56:05.720Z,12.61
2022-09-23T06:58:36.727Z,13.98
2022-09-23T07:01:17.684Z,15.29
2022-09-23T07:03:46.272Z,15.24
2022-09-23T07:06:13.327Z,13.76
2022-09-23T07:08:44.415Z,15.72
2022-09-23T07:11:13.496Z,15.03
2022-09-23T07:13:42.341Z,14.65
2022-09-23T07:16:10.971Z,15.75
2022-09-23T07:18:38.295Z,18.48
2022-09-23T07:21:23.984Z,19.29
2022-09-23T07:23:51.984Z,15.55
2022-09-23T07:26:19.930Z,15.59
2022-09-23T07:28:47.258Z,14.42
2022-09-23T07:31:25.223Z,13.29
2022-09-23T07:34:01.342Z,12.23
2022-09-23T07:36:31.454Z,11.88
2022-09-23T07:39:01.827Z,11.55
2022-09-23T07:41:30.359Z,11.84
2022-09-23T07:44:00.612Z,13.15
2022-09-23T07:46:30.305Z,15.13
2022-09-23T07:48:57.775Z,15.08
2022-09-23T07:51:36.267Z,13.00
2022-09-23T07:54:10.089Z,15.60
2022-09-23T07:56:38.198Z,15.37
2022-09-23T07:59:08.779Z,14.91
2022-09-23T08:01:38.709Z,14.69
2022-09-23T08:04:14.588Z,14.55
2022-09-23T08:06:43.321Z,14.06
2022-09-23T08:09:10.894Z,13.27
2022-09-23T08:11:42.124Z,12.94
2022-09-23T08:14:11.037Z,11.92
2022-09-23T08:16:37.766Z,11.06
2022-09-23T08:21:32.726Z,10.95
2022-09-23T08:23:59.594Z,10.68
2022-09-23T08:26:27.157Z,10.94
2022-09-23T08:28:54.685Z,10.88
2022-09-23T08:31:23.040Z,10.26
2022-09-23T08:33:57.740Z,10.08
2022-09-23T08:36:25.625Z,9.72
2022-09-23T08:38:52.699Z,11.79
2022-09-23T08:41:19.300Z,13.96
2022-09-23T08:43:54.116Z,14.83
2022-09-23T08:46:49.235Z,16.61
2022-09-23T08:49:33.523Z,17.02
2022-09-23T08:52:08.290Z,16.75
2022-09-23T08:54:35.019Z,17.44
2022-09-23T08:57:05.312Z,17.92
2022-09-23T08:59:42.193Z,16.14
2022-09-23T09:02:27.935Z,15.21
2022-09-23T09:05:00.171Z,15.42
2022-09-23T09:07:37.389Z,15.50
2022-09-23T09:10:23.631Z,15.49
2022-09-23T09:13:01.023Z,13.15
2022-09-23T09:15:28.833Z,13.62
2022-09-23T09:18:07.902Z,14.51
2022-09-23T09:20:43.858Z,14.54
2022-09-23T09:23:29.834Z,16.59
2022-09-23T09:26:01.557Z,17.47
2022-09-23T09:28:40.781Z,18.03
2022-09-23T09:31:38.508Z,18.89
2022-09-23T09:34:13.303Z,19.95
2022-09-23T09:36:48.786Z,18.60
2022-09-23T09:39:16.357Z,18.77
2022-09-23T09:41:48.757Z,19.37
2022-09-23T09:44:40.808Z,20.05
2022-09-23T09:47:28.458Z,18.59
2022-09-23T09:50:07.644Z,16.37
2022-09-23T09:52:38.888Z,15.47
2022-09-23T09:55:14.824Z,15.17
2022-09-23T09:57:49.815Z,15.48
2022-09-23T10:00:22.419Z,15.27
2022-09-23T10:02:53.818Z,14.48
2022-09-23T10:05:28.431Z,14.53
2022-09-23T10:07:55.239Z,14.42
2022-09-23T10:10:32.870Z,13.84
2022-09-23T10:13:15.294Z,12.68
2022-09-23T10:15:45.232Z,12.29
2022-09-23T10:18:30.548Z,12.02
2022-09-23T10:21:15.276Z,11.32
2022-09-23T10:23:44.951Z,10.88
2022-09-23T10:26:13.192Z,10.61
2022-09-23T10:28:59.716Z,10.54
2022-09-23T10:31:27.735Z,9.68
2022-09-23T10:34:00.490Z,9.80
2022-09-23T10:36:29.478Z,9.88
2022-09-23T10:39:21.934Z,9.57
2022-09-23T10:42:37.713Z,9.48
2022-09-23T10:45:38.589Z,8.98
2022-09-23T10:48:36.142Z,9.78
2022-09-23T10:51:31.952Z,10.40
2022-09-23T10:54:09.778Z,10.96
2022-09-23T10:56:43.039Z,11.98
2022-09-23T10:59:27.988Z,13.39
2022-09-23T11:02:22.047Z,14.11
2022-09-23T11:05:03.994Z,13.91
2022-09-23T11:07:37.376Z,14.58
2022-09-23T11:10:45.465Z,14.01
2022-09-23T11:13:28.691Z,14.11
2022-09-23T11:16:16.888Z,14.07
2022-09-23T11:19:01.020Z,14.00
2022-09-23T11:21:33.808Z,13.89
2022-09-23T11:24:18.438Z,13.55
2022-09-23T11:26:45.207Z,13.83
2022-09-23T11:29:23.982Z,14.56
2022-09-23T11:32:15.410Z,14.25
2022-09-23T11:35:13.241Z,13.60
2022-09-23T11:37:52.296Z,13.02
2022-09-23T11:40:31.150Z,12.94
2022-09-23T11:43:10.316Z,13.05
2022-09-23T11:45:45.022Z,12.84
2022-09-23T11:48:30.799Z,13.49
2022-09-23T11:51:07.204Z,13.66
2022-09-23T11:53:46.513Z,13.36
2022-09-23T11:56:35.397Z,13.70
2022-09-23T11:59:03.528Z,13.81
2022-09-23T12:01:48.092Z,13.66
2022-09-23T12:04:28.853Z,13.88
2022-09-23T12:07:24.874Z,13.98
2022-09-23T12:10:01.331Z,13.57
2022-09-23T12:12:56.175Z,13.19
2022-09-23T12:15:34.436Z,13.05
2022-09-23T12:18:13.035Z,12.87
2022-09-23T12:20:58.077Z,13.10
2022-09-23T12:23:24.868Z,12.87
2022-09-23T12:26:09.765Z,12.66
2022-09-23T12:28:45.180Z,12.64
2022-09-23T12:31:16.304Z,12.52
2022-09-23T12:34:04.599Z,13.13
2022-09-23T12:36:35.466Z,12.84
2022-09-23T12:39:04.636Z,13.26
2022-09-23T12:41:41.630Z,13.44
2022-09-23T12:44:12.641Z,13.27
2022-09-23T12:46:41.435Z,12.87
2022-09-23T12:49:30.079Z,12.17
2022-09-23T12:52:12.210Z,12.18
2022-09-23T12:54:40.824Z,11.90
2022-09-23T12:57:13.147Z,11.92
2022-09-23T12:59:52.605Z,11.50
2022-09-23T13:02:28.638Z,11.57
2022-09-23T13:05:38.011Z,11.44
2022-09-23T13:08:37.834Z,11.90
2022-09-23T13:11:08.636Z,12.01
2022-09-23T13:13:42.240Z,12.03
2022-09-23T13:16:32.556Z,11.92
2022-09-23T13:19:00.967Z,11.77
2022-09-23T13:21:42.958Z,11.57
2022-09-23T13:24:31.358Z,11.75
2022-09-23T13:27:07.081Z,11.46
2022-09-23T13:29:55.963Z,11.41
2022-09-23T13:32:29.012Z,11.13
2022-09-23T13:35:06.128Z,11.16
2022-09-23T13:37:43.305Z,11.37
2022-09-23T13:40:27.507Z,11.42
2022-09-23T13:43:06.403Z,11.60
2022-09-23T13:45:38.438Z,11.67
2022-09-23T13:48:13.620Z,11.50
2022-09-23T13:50:45.350Z,11.50
2022-09-23T13:53:17.874Z,11.29
2022-09-23T13:55:47.921Z,11.01
2022-09-23T13:58:24.113Z,11.12
2022-09-23T14:00:52.010Z,11.14
2022-09-23T14:03:37.038Z,10.89
2022-09-23T14:06:14.521Z,10.72
2022-09-23T14:08:46.048Z,10.84
2022-09-23T14:11:22.492Z,10.76
2022-09-23T14:13:54.996Z,10.27
2022-09-23T14:16:26.841Z,10.41
2022-09-23T14:19:00.355Z,10.42
2022-09-23T14:21:37.004Z,10.33
2022-09-23T14:24:17.470Z,10.36
2022-09-23T14:26:49.268Z,10.23
2022-09-23T14:29:46.580Z,10.22
2022-09-23T14:32:22.839Z,10.13
2022-09-23T14:34:50.805Z,10.42
2022-09-23T14:37:51.559Z,10.52
2022-09-23T14:40:21.158Z,10.57
2022-09-23T14:43:15.911Z,10.56
2022-09-23T14:45:47.443Z,10.47
2022-09-23T14:48:22.678Z,10.30
2022-09-23T14:50:52.618Z,10.25
2022-09-23T14:53:19.593Z,10.58
2022-09-23T14:55:52.934Z,10.69
2022-09-23T14:58:23.167Z,10.66
2022-09-23T15:00:57.090Z,10.49
2022-09-23T15:03:24.125Z,10.43
2022-09-23T15:05:57.942Z,10.45
2022-09-23T15:08:27.672Z,10.48
2022-09-23T15:10:55.079Z,10.35
2022-09-23T15:13:27.417Z,10.33
2022-09-23T15:15:55.001Z,10.43
2022-09-23T15:18:42.957Z,10.18
2022-09-23T15:21:19.406Z,10.23
2022-09-23T15:23:57.527Z,10.32
2022-09-23T15:26:26.803Z,10.06
2022-09-23T15:28:58.512Z,10.17
2022-09-23T15:31:26.670Z,10.16
2022-09-23T15:33:53.453Z,10.24
2022-09-23T15:36:28.658Z,10.13
2022-09-23T15:38:57.288Z,10.18
2022-09-23T15:41:24.501Z,10.13
2022-09-23T15:43:51.579Z,10.17
2022-09-23T15:46:28.252Z,9.96
2022-09-23T15:49:03.286Z,9.66
2022-09-23T15:51:30.642Z,9.54
2022-09-23T15:53:57.809Z,9.27
2022-09-23T15:56:25.039Z,9.28
2022-09-23T15:58:51.806Z,8.92
2022-09-23T16:01:24.588Z,8.92
2022-09-23T16:03:51.342Z,9.03
2022-09-23T16:06:20.424Z,9.19
2022-09-23T16:08:48.004Z,9.11
2022-09-23T16:11:31.924Z,8.91
2022-09-23T16:14:00.785Z,8.81
2022-09-23T16:16:28.063Z,8.73
2022-09-23T16:18:55.825Z,8.50
2022-09-23T16:21:26.204Z,8.57
2022-09-23T16:23:54.515Z,8.36
2022-09-23T16:26:27.708Z,8.60
2022-09-23T16:28:56.379Z,8.37
2022-09-23T16:31:25.660Z,8.30
2022-09-23T16:33:53.729Z,8.51
2022-09-23T16:36:27.146Z,8.41
2022-09-23T16:38:57.928Z,8.28
2022-09-23T16:41:26.407Z,8.26
2022-09-23T16:43:53.730Z,8.17
2022-09-23T16:46:21.533Z,8.07
2022-09-23T16:48:52.571Z,7.48
2022-09-23T16:51:22.446Z,7.38
2022-09-23T16:53:50.665Z,7.64
2022-09-23T16:56:24.359Z,7.82
2022-09-23T16:58:55.105Z,7.70
2022-09-23T17:01:46.070Z,7.40
2022-09-23T17:04:14.802Z,7.48
2022-09-23T17:06:50.277Z,7.47
2022-09-23T17:09:23.462Z,7.37
2022-09-23T17:12:09.433Z,7.49
2022-09-23T17:14:36.807Z,7.39
2022-09-23T17:17:03.494Z,7.33
2022-09-23T17:19:30.293Z,7.35
2022-09-23T17:21:56.986Z,7.15
2022-09-23T17:24:23.796Z,7.20
2022-09-23T17:26:53.301Z,7.10
2022-09-23T17:29:20.309Z,6.99
2022-09-23T17:31:47.219Z,6.97
2022-09-23T17:34:14.138Z,7.01
2022-09-23T17:36:40.882Z,7.08
2022-09-23T17:39:07.745Z,7.03
2022-09-23T17:41:34.463Z,6.96
2022-09-23T17:44:01.437Z,6.76
2022-09-23T17:46:30.234Z,6.63
2022-09-23T17:48:57.836Z,6.40
2022-09-23T17:51:25.561Z,6.29
2022-09-23T17:53:52.669Z,6.34
2022-09-23T17:56:27.121Z,6.46
2022-09-23T17:58:54.150Z,6.26
2022-09-23T18:01:23.169Z,6.50
2022-09-23T18:04:01.442Z,6.55
2022-09-23T18:06:31.956Z,6.59
2022-09-23T18:09:06.899Z,6.65
2022-09-23T18:11:35.494Z,6.50
2022-09-23T18:14:06.680Z,6.39
2022-09-23T18:16:40.521Z,6.21
2022-09-23T18:19:11.741Z,6.30
2022-09-23T18:21:41.180Z,6.27
2022-09-23T18:24:34.779Z,5.93
2022-09-23T18:27:02.480Z,6.20
2022-09-23T18:29:29.666Z,6.09
2022-09-23T18:31:56.713Z,6.21
2022-09-23T18:34:23.682Z,6.32
2022-09-23T18:36:50.816Z,6.27
2022-09-23T18:39:17.648Z,6.28
2022-09-23T18:41:44.321Z,6.06
2022-09-23T18:44:11.636Z,5.95
2022-09-23T18:46:38.575Z,5.96
2022-09-23T18:49:24.459Z,5.95
2022-09-23T18:51:52.477Z,5.94
2022-09-23T18:54:22.152Z,6.13
2022-09-23T18:56:50.069Z,5.81
2022-09-23T18:59:19.781Z,5.94
2022-09-23T19:01:48.800Z,6.04
2022-09-23T19:04:18.420Z,5.79
2022-09-23T19:06:46.030Z,5.84
2022-09-23T19:09:14.292Z,5.92
2022-09-23T19:11:41.220Z,6.01
2022-09-23T19:14:11.453Z,5.94
2022-09-23T19:16:40.254Z,5.86
2022-09-23T19:19:07.891Z,6.01
2022-09-23T19:21:35.187Z,6.01
2022-09-23T19:24:06.473Z,5.79
2022-09-23T19:26:39.588Z,5.85
2022-09-23T19:29:09.259Z,5.73
2022-09-23T19:31:40.737Z,5.46
2022-09-23T19:34:16.715Z,5.62
2022-09-23T19:36:45.834Z,5.80
2022-09-23T19:39:19.131Z,5.73
2022-09-23T19:41:46.984Z,5.78
2022-09-23T19:44:14.363Z,5.85
2022-09-23T19:46:44.602Z,5.92
2022-09-23T19:49:12.188Z,5.94
2022-09-23T19:51:39.359Z,5.96
2022-09-23T19:54:07.557Z,5.91
2022-09-23T19:56:34.925Z,5.90
2022-09-23T19:59:03.133Z,5.99
2022-09-23T20:01:32.042Z,6.09
2022-09-23T20:03:59.446Z,6.10
2022-09-23T20:06:30.372Z,6.16
2022-09-23T20:08:59.641Z,6.06
2022-09-23T20:11:28.665Z,5.95
2022-09-23T20:14:02.298Z,5.98
2022-09-23T20:16:32.520Z,6.03
2022-09-23T20:19:01.068Z,5.96
2022-09-23T20:21:29.427Z,5.75
2022-09-23T20:23:57.928Z,5.83
2022-09-23T20:26:43.792Z,5.96
2022-09-23T20:29:11.110Z,5.74
2022-09-23T20:31:40.655Z,5.85
2022-09-23T20:34:08.415Z,5.87
2022-09-23T20:36:36.208Z,5.95
2022-09-23T20:39:09.651Z,5.95
2022-09-23T20:41:37.959Z,5.80
2022-09-23T20:44:12.540Z,5.71
2022-09-23T20:46:48.262Z,5.59
2022-09-23T20:49:17.358Z,5.69
2022-09-23T20:51:44.345Z,5.67
2022-09-23T20:54:12.173Z,5.79
2022-09-23T20:56:39.222Z,5.74
2022-09-23T20:59:05.892Z,5.66
2022-09-23T21:01:35.363Z,5.45
2022-09-23T21:04:04.902Z,5.02
2022-09-23T21:06:33.593Z,5.28
2022-09-23T21:09:00.929Z,5.22
2022-09-23T21:11:29.188Z,5.27
2022-09-23T21:13:56.674Z,5.37
2022-09-23T21:16:24.165Z,5.35
2022-09-23T21:18:51.918Z,5.37
2022-09-23T21:21:20.034Z,5.38
2022-09-23T21:23:47.729Z,5.19
2022-09-23T21:26:19.883Z,5.06
2022-09-23T21:28:48.785Z,4.84
2022-09-23T21:31:28.422Z,4.83
2022-09-23T21:33:56.951Z,4.70
2022-09-23T21:36:24.915Z,4.65
2022-09-23T21:38:52.576Z,4.52
2022-09-23T21:41:19.930Z,4.20
2022-09-23T21:43:47.568Z,4.35
2022-09-23T21:46:17.412Z,4.47
2022-09-23T21:48:44.284Z,4.44
2022-09-23T21:51:16.497Z,4.41
2022-09-23T21:53:44.916Z,4.45
2022-09-23T21:56:19.666Z,4.58
2022-09-23T21:58:47.529Z,4.59
2022-09-23T22:01:35.673Z,4.20
2022-09-23T22:04:10.287Z,4.14
2022-09-23T22:06:38.691Z,4.04
2022-09-23T22:09:10.921Z,4.03
2022-09-23T22:11:57.946Z,3.87
2022-09-23T22:14:26.060Z,3.97
2022-09-23T22:16:59.962Z,4.18
2022-09-23T22:19:35.854Z,4.11
2022-09-23T22:22:07.784Z,4.15
2022-09-23T22:24:34.559Z,4.00
2022-09-23T22:27:01.363Z,3.93
2022-09-23T22:29:46.514Z,3.97
2022-09-23T22:32:32.016Z,3.88
2022-09-23T22:34:58.693Z,3.66
2022-09-23T22:37:32.898Z,4.01
2022-09-23T22:40:00.564Z,3.99
2022-09-23T22:42:28.037Z,3.89
2022-09-23T22:44:56.177Z,3.91
2022-09-23T22:47:23.640Z,3.55
2022-09-23T22:49:55.620Z,3.73
2022-09-23T22:52:24.659Z,3.65
2022-09-23T22:54:52.252Z,3.69
2022-09-23T22:57:19.679Z,3.73
2022-09-23T22:59:48.430Z,3.66
2022-09-23T23:02:18.151Z,3.70
2022-09-23T23:04:47.081Z,3.74
2022-09-23T23:07:15.010Z,3.77
2022-09-23T23:09:41.937Z,3.65
2022-09-23T23:12:08.651Z,3.54
2022-09-23T23:14:36.433Z,3.61
2022-09-23T23:17:07.310Z,3.43
2022-09-23T23:19:35.413Z,3.45
2022-09-23T23:22:02.257Z,3.43
2022-09-23T23:24:29.128Z,3.37
2022-09-23T23:26:55.851Z,3.30
2022-09-23T23:29:23.525Z,3.10
2022-09-23T23:31:51.200Z,3.17
2022-09-23T23:34:20.583Z,3.22
2022-09-23T23:36:55.293Z,3.19
2022-09-23T23:39:23.682Z,2.79
2022-09-23T23:41:59.432Z,2.93
2022-09-23T23:44:27.177Z,3.06
2022-09-23T23:46:54.948Z,3.05
2022-09-23T23:49:22.057Z,3.06
2022-09-23T23:51:48.864Z,3.16
2022-09-23T23:54:15.694Z,3.29
2022-09-23T23:56:43.210Z,3.28
2022-09-23T23:59:09.870Z,3.05
